Palisades, WA

1:05 PM PDT on June 03, 2015 (GMT -0700)
Bowers | | Change Station
CLOSE
Current Station
Airport
Location: Ellensburg,
Elevation: 1762 ft
Nearby Weather Stations

Elev 1762 ft 47.03 °N, 120.53 °W | Updated 12 minutes ago

Partly Cloudy
Partly Cloudy
72 °F
Feels Like 72 °F
N
16
Wind Variable Wind from NW

Today
High -- | Low -- °F
--% Chance of Precip.
Yesterday
High -- | Low -- °F
Precip. -- in
5:04 AM 8:49 PM
Full, 98% visible
Pressure 29.94 in
Visibility 10.0 miles
Clouds Mostly Cloudy 7000 ft
Dew Point 44 °F
Humidity 37%
Rainfall 0.00 in
Snow Depth Not available.
UV 6 out of 12
Pollen 8.40 out of 12
Air Quality Not available.
Flu Activity Sporadic
METAR KELN 031953Z AUTO 31014KT 10SM BKN070 22/07 A2996 RMK AO2 SLP138 T02220067

More Conditions Fewer Conditions

Pressure 29.94 in
Visibility 10.0 miles
Clouds Mostly Cloudy 7000 ft
Dew Point 44 °F
Humidity 37%
Rainfall 0.00 in
Snow Depth Not available.
UV 6 out of 12
Pollen 8.40 out of 12
Air Quality Not available.
Flu Activity Sporadic
METAR KELN 031953Z AUTO 31014KT 10SM BKN070 22/07 A2996 RMK AO2 SLP138 T02220067

More Conditions Fewer Conditions

10-Day Weather Forecast

×

Almanac

Astronomy

Jun. 03, 2015 Rise Set
Actual Time
Civil Twilight
Nautical Twilight
Astronomical Twilight
Moon
Length of Visible Light
Length of Day
Tomorrow will be .
, % of the Moon is Illuminated

Today's Extremes

State Highs State Lows

Community

WunderPhotos

Upload Photos

1,826,277 photos uploaded!

WunderBlogs® & News

Nearby

Air Quality

  Air Quality AQ Index Pollutant
Not available.

Snow Depth

Station Depth Elevation

Earthquake Activity

City Distance Mag. Time & Date
Minimum magnitude displayed is 2.5.

Coastal Water Temperatures

Place Temperature

Stations

Nearby Weather Stations

Station Location Temp. Windchill Dew Point Humidity Wind Precip. Elev Updated Type